createdAt,value
2023-02-22T06:49:55.526Z,28.22
2023-02-22T06:50:55.276Z,28.08
2023-02-22T06:51:55.492Z,28.11
2023-02-22T06:52:56.813Z,28.21
2023-02-22T06:53:55.148Z,28.29
2023-02-22T06:54:55.440Z,28.39
2023-02-22T06:55:55.414Z,28.66
2023-02-22T06:56:55.166Z,28.98
2023-02-22T06:57:55.164Z,28.42
2023-02-22T06:58:55.152Z,27.61
2023-02-22T06:59:55.151Z,27.79
2023-02-22T07:00:55.505Z,26.67
2023-02-22T07:01:55.162Z,26.34
2023-02-22T07:02:55.110Z,26.05
2023-02-22T07:03:55.170Z,25.93
2023-02-22T07:04:55.251Z,25.86
2023-02-22T07:05:55.280Z,25.73
2023-02-22T07:06:55.192Z,25.47
2023-02-22T07:07:55.222Z,25.24
2023-02-22T07:08:55.243Z,26.36
2023-02-22T07:09:55.299Z,26.47
2023-02-22T07:10:55.410Z,26.61
2023-02-22T07:11:55.392Z,26.59
2023-02-22T07:12:55.370Z,26.46
2023-02-22T07:13:55.310Z,26.33
2023-02-22T07:14:55.346Z,26.19
2023-02-22T07:15:56.056Z,26.30
2023-02-22T07:16:55.486Z,26.30
2023-02-22T07:17:55.476Z,26.24
2023-02-22T07:18:55.528Z,26.27
2023-02-22T07:19:55.590Z,26.29
2023-02-22T07:20:55.607Z,26.27
2023-02-22T07:21:55.655Z,26.02
2023-02-22T07:22:55.717Z,26.00
2023-02-22T07:23:55.743Z,25.81
2023-02-22T07:24:55.749Z,25.66
2023-02-22T07:25:55.978Z,25.69
2023-02-22T07:26:55.928Z,25.79
2023-02-22T07:27:55.743Z,25.95
2023-02-22T07:28:55.872Z,26.00
2023-02-22T07:30:56.592Z,25.96
2023-02-22T07:31:56.039Z,25.99
2023-02-22T07:32:56.114Z,25.79
2023-02-22T07:33:56.044Z,26.06
2023-02-22T07:34:56.196Z,25.81
2023-02-22T07:35:56.207Z,25.86
2023-02-22T07:36:56.518Z,25.80
2023-02-22T07:38:56.276Z,25.63
2023-02-22T07:39:56.329Z,26.03
2023-02-22T07:40:56.642Z,25.72
2023-02-22T07:41:56.271Z,25.46
2023-02-22T07:42:57.178Z,25.28
2023-02-22T07:43:56.265Z,25.24
2023-02-22T07:44:56.299Z,25.72
2023-02-22T07:45:56.296Z,25.68
2023-02-22T07:48:17.394Z,26.06
2023-02-22T07:49:15.204Z,25.09
2023-02-22T07:50:15.571Z,24.65
2023-02-22T07:51:15.465Z,24.36
2023-02-22T07:52:15.340Z,24.14
2023-02-22T07:53:15.422Z,23.84
2023-02-22T08:03:53.520Z,22.41
2023-02-22T08:32:50.302Z,24.11
2023-02-22T08:47:46.710Z,22.43
2023-02-22T08:48:46.904Z,22.18
2023-02-22T08:49:46.826Z,22.00
2023-02-22T08:50:47.672Z,21.73
2023-02-22T08:51:47.093Z,21.92
2023-02-22T08:52:46.789Z,21.86
2023-02-22T08:53:46.829Z,21.66
2023-02-22T08:54:46.933Z,21.48
2023-02-22T08:55:46.964Z,21.36
2023-02-22T08:56:47.047Z,21.35
2023-02-22T08:57:46.959Z,21.25
2023-02-22T08:58:46.956Z,21.27
2023-02-22T08:59:47.286Z,20.96
2023-02-22T09:02:05.993Z,21.00
2023-02-22T09:03:05.915Z,21.21
2023-02-22T09:04:05.934Z,21.32
2023-02-22T09:05:05.952Z,21.02
2023-02-22T09:06:06.122Z,20.83
2023-02-22T09:07:05.905Z,21.14
2023-02-22T09:08:05.897Z,21.76
2023-02-22T09:09:05.905Z,21.89
2023-02-22T09:10:05.852Z,21.43
2023-02-22T09:11:05.865Z,21.30
2023-02-22T09:12:05.863Z,21.36
2023-02-22T09:13:05.879Z,21.12
2023-02-22T09:45:45.188Z,21.04
2023-02-22T09:46:44.608Z,20.45
2023-02-22T09:54:22.903Z,22.15
2023-02-22T09:55:22.818Z,22.62
2023-02-22T09:56:22.746Z,22.52
2023-02-22T10:01:43.865Z,22.77
2023-02-22T10:06:10.680Z,22.54
2023-02-22T10:07:10.866Z,21.89
2023-02-22T10:11:19.524Z,22.26
2023-02-22T10:13:37.422Z,21.78
2023-02-22T10:14:37.807Z,21.68
2023-02-22T10:15:37.986Z,21.79
2023-02-22T10:16:37.373Z,21.07
2023-02-22T10:17:37.289Z,21.23
2023-02-22T10:18:37.240Z,21.77
2023-02-22T10:19:37.263Z,21.73
2023-02-22T10:20:37.869Z,21.57
2023-02-22T10:22:56.439Z,21.50
2023-02-22T10:23:57.841Z,21.43
2023-02-22T10:26:59.351Z,22.12
2023-02-22T10:30:38.658Z,22.73
2023-02-22T10:44:07.244Z,24.13
2023-02-22T10:45:06.876Z,23.55
2023-02-22T10:46:05.479Z,23.03
2023-02-22T10:48:05.381Z,22.17
2023-02-22T10:51:43.880Z,22.52
2023-02-22T10:58:40.357Z,22.51
2023-02-22T11:04:08.049Z,22.68
2023-02-22T11:06:52.675Z,22.88
2023-02-22T11:09:08.666Z,23.68
2023-02-22T11:10:08.236Z,23.25
2023-02-22T11:11:08.267Z,22.81
2023-02-22T11:12:08.408Z,22.59
2023-02-22T11:13:08.194Z,22.53
2023-02-22T11:14:08.200Z,22.46
2023-02-22T11:15:08.191Z,22.40
2023-02-22T11:16:14.124Z,22.38
2023-02-22T11:24:24.305Z,23.26
2023-02-22T11:29:51.239Z,23.97
2023-02-22T13:24:22.142Z,27.56
2023-02-22T13:25:22.154Z,26.94
2023-02-22T13:26:21.894Z,26.63
2023-02-22T13:43:40.686Z,28.54
2023-02-22T13:51:40.574Z,25.80
2023-02-22T13:52:40.504Z,25.99
2023-02-22T13:53:40.598Z,26.24
2023-02-22T13:54:40.578Z,26.49
2023-02-22T13:55:40.661Z,26.70
2023-02-22T13:56:40.657Z,26.60
2023-02-22T13:57:40.704Z,21.90
2023-02-22T13:58:40.779Z,24.97
2023-02-22T13:59:40.764Z,26.10
2023-02-22T14:00:40.796Z,26.76
2023-02-22T14:01:40.940Z,26.38
2023-02-22T14:02:40.871Z,27.59
2023-02-22T14:03:41.435Z,28.03
2023-02-22T14:04:41.072Z,27.87
2023-02-22T14:05:42.101Z,27.91
2023-02-22T14:06:41.071Z,28.41
2023-02-22T14:07:41.101Z,27.99
2023-02-22T14:08:41.964Z,28.41
2023-02-22T14:09:41.207Z,29.27
2023-02-22T14:44:40.598Z,26.95
2023-02-22T14:45:40.582Z,26.67
2023-02-22T14:46:40.626Z,26.45
2023-02-22T14:47:40.642Z,26.32
2023-02-22T14:48:40.831Z,26.48
2023-02-22T14:49:40.698Z,26.24
2023-02-22T14:50:40.952Z,26.35
2023-02-22T14:51:40.774Z,26.43
2023-02-22T14:52:40.985Z,26.40
2023-02-22T14:53:40.860Z,26.42
2023-02-22T14:54:40.971Z,26.48
2023-02-22T14:55:41.056Z,26.45
2023-02-22T14:56:41.061Z,26.45
2023-02-22T14:57:41.098Z,26.64
2023-02-22T14:58:41.168Z,26.76
2023-02-22T14:59:41.137Z,27.21
2023-02-22T15:00:41.184Z,26.86
2023-02-22T15:02:01.750Z,27.47
2023-02-22T15:02:42.257Z,27.67
2023-02-22T15:03:41.382Z,27.73
2023-02-22T15:04:41.260Z,27.78
2023-02-22T15:05:41.184Z,27.77
2023-02-22T15:06:41.173Z,27.64
2023-02-22T15:07:41.173Z,27.70
2023-02-22T15:08:41.193Z,27.70
2023-02-22T15:09:41.170Z,27.67
2023-02-22T15:10:41.177Z,27.59
2023-02-22T15:11:41.216Z,27.41
2023-02-22T15:12:41.180Z,27.48
2023-02-22T15:13:41.133Z,27.29
2023-02-22T15:14:41.128Z,27.39
2023-02-22T15:15:41.090Z,23.62
2023-02-22T15:16:41.154Z,25.47
2023-02-22T15:17:41.102Z,25.93
2023-02-22T15:18:41.154Z,26.57
2023-02-22T15:19:41.166Z,21.25
2023-02-22T15:20:41.181Z,20.26
2023-02-22T15:21:41.290Z,20.58
2023-02-22T15:22:41.354Z,21.82
2023-02-22T15:23:41.421Z,23.64
2023-02-22T15:24:42.325Z,24.12
2023-02-22T15:25:41.596Z,24.67
2023-02-22T15:26:51.813Z,24.66
2023-02-22T15:27:42.638Z,24.64
2023-02-22T15:28:41.611Z,24.88
2023-02-22T15:31:00.966Z,25.79
2023-02-22T15:35:00.568Z,25.69
2023-02-22T15:36:00.361Z,25.91
2023-02-22T15:37:00.400Z,25.80
2023-02-22T15:38:00.406Z,25.66
2023-02-22T15:39:00.467Z,25.53
2023-02-22T15:40:00.347Z,25.25
2023-02-22T15:41:00.507Z,25.79
2023-02-22T15:43:00.369Z,26.97
2023-02-22T15:44:03.444Z,25.69
2023-02-22T15:45:01.365Z,25.43
2023-02-22T15:46:00.341Z,25.22
2023-02-22T15:47:00.283Z,24.98
2023-02-22T15:48:00.298Z,25.27
2023-02-22T15:49:00.314Z,25.46
2023-02-22T15:50:00.422Z,26.72
2023-02-22T15:51:00.373Z,26.68
2023-02-22T15:52:00.291Z,26.59
2023-02-22T15:53:00.328Z,25.83
2023-02-22T15:54:00.334Z,25.81
2023-02-22T15:55:00.273Z,25.88
2023-02-22T15:56:00.327Z,26.84
2023-02-22T15:57:00.591Z,26.55
2023-02-22T15:58:00.368Z,27.57
2023-02-22T15:59:00.345Z,27.16
2023-02-22T16:00:00.395Z,27.85
2023-02-22T16:01:00.493Z,29.35
2023-02-22T16:02:00.565Z,31.55
2023-02-22T16:03:00.517Z,31.50
2023-02-22T16:04:00.537Z,31.02
2023-02-22T16:05:00.715Z,30.27
2023-02-22T16:06:00.621Z,29.05
2023-02-22T16:07:00.652Z,29.47
2023-02-22T16:08:00.696Z,30.31
2023-02-22T16:09:00.848Z,30.23
2023-02-22T16:10:00.798Z,30.00
2023-02-22T16:11:00.856Z,29.86
2023-02-22T16:12:00.864Z,29.40
2023-02-22T16:13:00.912Z,29.59
2023-02-22T16:14:00.992Z,29.06
2023-02-22T16:15:01.025Z,29.01
2023-02-22T16:16:01.125Z,28.76
2023-02-22T16:17:01.121Z,28.46
2023-02-22T16:18:02.665Z,28.87
2023-02-22T16:19:01.210Z,28.51
2023-02-22T16:20:01.242Z,28.34
2023-02-22T16:21:01.274Z,28.03
2023-02-22T16:22:01.333Z,28.51
2023-02-22T16:23:01.368Z,28.33
2023-02-22T16:24:14.868Z,28.17
2023-02-22T16:25:02.480Z,28.25
2023-02-22T16:26:01.383Z,28.60
2023-02-22T21:30:34.062Z,27.88
2023-02-22T21:31:33.560Z,27.18
2023-02-22T21:32:33.503Z,27.04
2023-02-22T21:33:33.534Z,26.91
2023-02-22T21:34:33.456Z,26.82
2023-02-22T21:35:34.519Z,26.79
2023-02-22T21:36:33.608Z,26.76
2023-02-22T21:37:33.527Z,26.71
2023-02-22T21:38:33.517Z,26.76
2023-02-22T21:39:33.592Z,26.78
2023-02-22T21:40:33.690Z,26.74
2023-02-22T21:41:33.721Z,26.71
2023-02-22T21:42:33.796Z,26.74
2023-02-22T21:43:33.816Z,26.68
2023-02-22T21:44:33.897Z,26.63
2023-02-22T21:45:34.017Z,26.61
2023-02-22T21:46:34.002Z,26.60
2023-02-22T21:47:34.053Z,26.58
2023-02-22T21:48:34.101Z,26.59
2023-02-22T22:56:22.050Z,26.12
2023-02-22T23:52:06.984Z,25.79
2023-02-22T23:53:07.037Z,25.78
2023-02-22T23:54:07.076Z,25.77
2023-02-22T23:55:07.141Z,25.75
2023-02-22T23:56:07.152Z,25.76
2023-02-22T23:57:07.193Z,25.74
2023-02-22T23:58:07.212Z,25.76
2023-02-22T23:59:07.296Z,25.76
